sensor_id;sensor_type;location;lat;lon;timestamp;P1;durP1;ratioP1;P2;durP2;ratioP2
59300;SDS011;45073;52.740;6.784;2024-03-02T00:00:21;6.05;;;2.17;;
59300;SDS011;45073;52.740;6.784;2024-03-02T00:02:47;5.78;;;2.30;;
59300;SDS011;45073;52.740;6.784;2024-03-02T00:05:18;5.93;;;2.35;;
59300;SDS011;45073;52.740;6.784;2024-03-02T00:07:52;4.55;;;1.63;;
59300;SDS011;45073;52.740;6.784;2024-03-02T00:10:23;5.90;;;2.00;;
59300;SDS011;45073;52.740;6.784;2024-03-02T00:12:54;8.50;;;2.35;;
59300;SDS011;45073;52.740;6.784;2024-03-02T00:18:13;6.15;;;2.47;;
59300;SDS011;45073;52.740;6.784;2024-03-02T00:20:42;5.30;;;1.80;;
59300;SDS011;45073;52.740;6.784;2024-03-02T00:23:09;5.22;;;1.83;;
59300;SDS011;45073;52.740;6.784;2024-03-02T00:28:01;5.13;;;1.83;;
59300;SDS011;45073;52.740;6.784;2024-03-02T00:33:15;6.07;;;2.08;;
59300;SDS011;45073;52.740;6.784;2024-03-02T00:35:43;5.60;;;1.80;;
59300;SDS011;45073;52.740;6.784;2024-03-02T00:38:10;4.97;;;2.03;;
59300;SDS011;45073;52.740;6.784;2024-03-02T00:40:35;5.60;;;2.05;;
59300;SDS011;45073;52.740;6.784;2024-03-02T00:43:01;5.78;;;2.00;;
59300;SDS011;45073;52.740;6.784;2024-03-02T00:45:28;4.95;;;1.90;;
59300;SDS011;45073;52.740;6.784;2024-03-02T00:47:54;7.45;;;2.25;;
59300;SDS011;45073;52.740;6.784;2024-03-02T00:50:20;5.38;;;2.15;;
59300;SDS011;45073;52.740;6.784;2024-03-02T00:52:46;6.53;;;2.13;;
59300;SDS011;45073;52.740;6.784;2024-03-02T00:55:15;6.22;;;2.28;;
59300;SDS011;45073;52.740;6.784;2024-03-02T00:57:41;5.70;;;2.10;;
59300;SDS011;45073;52.740;6.784;2024-03-02T01:00:07;9.95;;;2.42;;
59300;SDS011;45073;52.740;6.784;2024-03-02T01:02:35;5.93;;;1.77;;
59300;SDS011;45073;52.740;6.784;2024-03-02T01:05:01;8.18;;;2.25;;
59300;SDS011;45073;52.740;6.784;2024-03-02T01:07:26;7.22;;;2.70;;
59300;SDS011;45073;52.740;6.784;2024-03-02T01:09:52;5.60;;;2.00;;
59300;SDS011;45073;52.740;6.784;2024-03-02T01:12:17;6.05;;;2.20;;
59300;SDS011;45073;52.740;6.784;2024-03-02T01:14:43;6.45;;;2.60;;
59300;SDS011;45073;52.740;6.784;2024-03-02T01:17:09;6.05;;;2.22;;
59300;SDS011;45073;52.740;6.784;2024-03-02T01:19:34;5.35;;;2.03;;
59300;SDS011;45073;52.740;6.784;2024-03-02T01:22:00;5.18;;;2.03;;
59300;SDS011;45073;52.740;6.784;2024-03-02T01:24:26;6.60;;;1.88;;
59300;SDS011;45073;52.740;6.784;2024-03-02T01:26:51;6.30;;;2.15;;
59300;SDS011;45073;52.740;6.784;2024-03-02T01:29:17;6.88;;;2.38;;
59300;SDS011;45073;52.740;6.784;2024-03-02T01:31:43;6.18;;;2.63;;
59300;SDS011;45073;52.740;6.784;2024-03-02T01:34:08;5.50;;;2.20;;
59300;SDS011;45073;52.740;6.784;2024-03-02T01:36:34;6.72;;;2.45;;
59300;SDS011;45073;52.740;6.784;2024-03-02T01:39:00;7.65;;;2.22;;
59300;SDS011;45073;52.740;6.784;2024-03-02T01:41:26;5.97;;;2.15;;
59300;SDS011;45073;52.740;6.784;2024-03-02T01:43:51;7.35;;;2.40;;
59300;SDS011;45073;52.740;6.784;2024-03-02T01:46:17;7.60;;;2.88;;
59300;SDS011;45073;52.740;6.784;2024-03-02T01:48:42;6.85;;;2.00;;
59300;SDS011;45073;52.740;6.784;2024-03-02T01:51:08;7.93;;;2.40;;
59300;SDS011;45073;52.740;6.784;2024-03-02T01:53:35;6.53;;;2.17;;
59300;SDS011;45073;52.740;6.784;2024-03-02T01:56:01;5.90;;;2.13;;
59300;SDS011;45073;52.740;6.784;2024-03-02T01:58:27;5.40;;;2.03;;
59300;SDS011;45073;52.740;6.784;2024-03-02T02:00:53;7.90;;;2.17;;
59300;SDS011;45073;52.740;6.784;2024-03-02T02:03:18;5.53;;;2.00;;
59300;SDS011;45073;52.740;6.784;2024-03-02T02:05:44;5.60;;;2.00;;
59300;SDS011;45073;52.740;6.784;2024-03-02T02:08:12;6.38;;;2.22;;
59300;SDS011;45073;52.740;6.784;2024-03-02T02:10:37;7.18;;;2.10;;
59300;SDS011;45073;52.740;6.784;2024-03-02T02:13:03;6.15;;;2.25;;
59300;SDS011;45073;52.740;6.784;2024-03-02T02:15:29;5.55;;;1.95;;
59300;SDS011;45073;52.740;6.784;2024-03-02T02:17:56;4.60;;;1.58;;
59300;SDS011;45073;52.740;6.784;2024-03-02T02:20:22;5.78;;;2.03;;
59300;SDS011;45073;52.740;6.784;2024-03-02T02:25:30;5.28;;;2.10;;
59300;SDS011;45073;52.740;6.784;2024-03-02T02:27:56;6.72;;;2.28;;
59300;SDS011;45073;52.740;6.784;2024-03-02T02:30:26;6.57;;;2.20;;
59300;SDS011;45073;52.740;6.784;2024-03-02T02:32:56;6.75;;;1.75;;
59300;SDS011;45073;52.740;6.784;2024-03-02T02:35:23;4.47;;;1.73;;
59300;SDS011;45073;52.740;6.784;2024-03-02T02:37:51;5.10;;;2.03;;
59300;SDS011;45073;52.740;6.784;2024-03-02T02:40:19;5.70;;;2.08;;
59300;SDS011;45073;52.740;6.784;2024-03-02T02:42:44;5.93;;;1.95;;
59300;SDS011;45073;52.740;6.784;2024-03-02T02:45:10;7.05;;;2.28;;
59300;SDS011;45073;52.740;6.784;2024-03-02T02:47:38;7.20;;;1.95;;
59300;SDS011;45073;52.740;6.784;2024-03-02T02:50:04;5.35;;;1.92;;
59300;SDS011;45073;52.740;6.784;2024-03-02T02:52:32;7.75;;;2.33;;
59300;SDS011;45073;52.740;6.784;2024-03-02T02:54:58;5.55;;;1.80;;
59300;SDS011;45073;52.740;6.784;2024-03-02T02:57:24;4.32;;;1.60;;
59300;SDS011;45073;52.740;6.784;2024-03-02T02:59:50;6.70;;;2.00;;
59300;SDS011;45073;52.740;6.784;2024-03-02T03:02:15;6.00;;;1.95;;
59300;SDS011;45073;52.740;6.784;2024-03-02T03:04:41;4.68;;;1.83;;
59300;SDS011;45073;52.740;6.784;2024-03-02T03:07:07;5.93;;;2.20;;
59300;SDS011;45073;52.740;6.784;2024-03-02T03:09:32;5.47;;;1.80;;
59300;SDS011;45073;52.740;6.784;2024-03-02T03:11:58;6.55;;;1.77;;
59300;SDS011;45073;52.740;6.784;2024-03-02T03:14:24;6.68;;;2.42;;
59300;SDS011;45073;52.740;6.784;2024-03-02T03:16:49;4.97;;;1.75;;
59300;SDS011;45073;52.740;6.784;2024-03-02T03:19:15;4.45;;;1.50;;
59300;SDS011;45073;52.740;6.784;2024-03-02T03:21:43;5.78;;;1.92;;
59300;SDS011;45073;52.740;6.784;2024-03-02T03:24:09;5.43;;;1.95;;
59300;SDS011;45073;52.740;6.784;2024-03-02T03:26:35;4.78;;;1.98;;
59300;SDS011;45073;52.740;6.784;2024-03-02T03:29:01;5.65;;;1.92;;
59300;SDS011;45073;52.740;6.784;2024-03-02T03:31:27;6.40;;;2.33;;
59300;SDS011;45073;52.740;6.784;2024-03-02T03:33:54;6.80;;;2.30;;
59300;SDS011;45073;52.740;6.784;2024-03-02T03:36:20;6.60;;;2.15;;
59300;SDS011;45073;52.740;6.784;2024-03-02T03:38:45;6.70;;;2.30;;
59300;SDS011;45073;52.740;6.784;2024-03-02T03:41:11;6.22;;;2.28;;
59300;SDS011;45073;52.740;6.784;2024-03-02T03:43:37;6.10;;;2.22;;
59300;SDS011;45073;52.740;6.784;2024-03-02T03:46:02;7.15;;;2.53;;
59300;SDS011;45073;52.740;6.784;2024-03-02T03:48:28;5.75;;;1.98;;
59300;SDS011;45073;52.740;6.784;2024-03-02T03:50:56;7.55;;;2.28;;
59300;SDS011;45073;52.740;6.784;2024-03-02T03:53:21;6.18;;;2.47;;
59300;SDS011;45073;52.740;6.784;2024-03-02T03:55:47;5.47;;;2.08;;
59300;SDS011;45073;52.740;6.784;2024-03-02T03:58:14;7.88;;;2.92;;
59300;SDS011;45073;52.740;6.784;2024-03-02T04:00:41;6.05;;;2.58;;
59300;SDS011;45073;52.740;6.784;2024-03-02T04:03:07;6.05;;;1.90;;
59300;SDS011;45073;52.740;6.784;2024-03-02T04:05:33;6.60;;;2.08;;
59300;SDS011;45073;52.740;6.784;2024-03-02T04:07:58;5.97;;;1.85;;
59300;SDS011;45073;52.740;6.784;2024-03-02T04:10:25;6.85;;;2.22;;
59300;SDS011;45073;52.740;6.784;2024-03-02T04:12:51;9.25;;;2.55;;
59300;SDS011;45073;52.740;6.784;2024-03-02T04:15:16;6.30;;;2.42;;
59300;SDS011;45073;52.740;6.784;2024-03-02T04:17:43;7.32;;;2.70;;
59300;SDS011;45073;52.740;6.784;2024-03-02T04:20:09;6.53;;;1.92;;
59300;SDS011;45073;52.740;6.784;2024-03-02T04:22:37;5.75;;;1.73;;
59300;SDS011;45073;52.740;6.784;2024-03-02T04:25:03;6.03;;;1.85;;
59300;SDS011;45073;52.740;6.784;2024-03-02T04:27:32;7.22;;;2.25;;
59300;SDS011;45073;52.740;6.784;2024-03-02T04:29:58;5.47;;;1.83;;
59300;SDS011;45073;52.740;6.784;2024-03-02T04:32:25;4.28;;;1.48;;
59300;SDS011;45073;52.740;6.784;2024-03-02T04:34:52;7.10;;;1.88;;
59300;SDS011;45073;52.740;6.784;2024-03-02T04:37:17;5.38;;;2.15;;
59300;SDS011;45073;52.740;6.784;2024-03-02T04:39:43;5.88;;;2.00;;
59300;SDS011;45073;52.740;6.784;2024-03-02T04:42:09;7.07;;;2.25;;
59300;SDS011;45073;52.740;6.784;2024-03-02T04:44:34;4.38;;;1.67;;
59300;SDS011;45073;52.740;6.784;2024-03-02T04:47:00;4.55;;;1.85;;
59300;SDS011;45073;52.740;6.784;2024-03-02T04:49:25;5.35;;;2.05;;
59300;SDS011;45073;52.740;6.784;2024-03-02T04:51:51;4.82;;;1.92;;
59300;SDS011;45073;52.740;6.784;2024-03-02T04:54:17;5.82;;;2.22;;
59300;SDS011;45073;52.740;6.784;2024-03-02T04:56:42;6.45;;;1.95;;
59300;SDS011;45073;52.740;6.784;2024-03-02T04:59:14;6.50;;;2.10;;
59300;SDS011;45073;52.740;6.784;2024-03-02T05:01:41;4.88;;;1.90;;
59300;SDS011;45073;52.740;6.784;2024-03-02T05:04:06;6.47;;;2.10;;
59300;SDS011;45073;52.740;6.784;2024-03-02T05:06:32;5.63;;;1.95;;
59300;SDS011;45073;52.740;6.784;2024-03-02T05:08:58;5.88;;;1.90;;
59300;SDS011;45073;52.740;6.784;2024-03-02T05:11:23;4.63;;;1.75;;
59300;SDS011;45073;52.740;6.784;2024-03-02T05:14:07;6.35;;;2.25;;
59300;SDS011;45073;52.740;6.784;2024-03-02T05:16:33;6.20;;;2.40;;
59300;SDS011;45073;52.740;6.784;2024-03-02T05:19:06;5.20;;;1.98;;
59300;SDS011;45073;52.740;6.784;2024-03-02T05:21:32;7.70;;;2.35;;
59300;SDS011;45073;52.740;6.784;2024-03-02T05:23:58;5.97;;;1.90;;
59300;SDS011;45073;52.740;6.784;2024-03-02T05:26:24;5.82;;;1.95;;
59300;SDS011;45073;52.740;6.784;2024-03-02T05:28:50;6.93;;;2.17;;
59300;SDS011;45073;52.740;6.784;2024-03-02T05:31:16;6.95;;;2.33;;
59300;SDS011;45073;52.740;6.784;2024-03-02T05:33:42;6.30;;;2.30;;
59300;SDS011;45073;52.740;6.784;2024-03-02T05:36:08;8.32;;;1.88;;
59300;SDS011;45073;52.740;6.784;2024-03-02T05:38:37;4.47;;;1.60;;
59300;SDS011;45073;52.740;6.784;2024-03-02T05:41:02;10.90;;;2.17;;
59300;SDS011;45073;52.740;6.784;2024-03-02T05:43:28;6.10;;;2.20;;
59300;SDS011;45073;52.740;6.784;2024-03-02T05:45:54;4.53;;;2.00;;
59300;SDS011;45073;52.740;6.784;2024-03-02T05:48:20;5.53;;;1.88;;
59300;SDS011;45073;52.740;6.784;2024-03-02T05:50:46;5.43;;;2.03;;
59300;SDS011;45073;52.740;6.784;2024-03-02T05:53:11;6.57;;;2.47;;
59300;SDS011;45073;52.740;6.784;2024-03-02T05:55:37;7.30;;;2.15;;
59300;SDS011;45073;52.740;6.784;2024-03-02T05:58:02;7.25;;;2.00;;
59300;SDS011;45073;52.740;6.784;2024-03-02T06:00:31;6.15;;;2.15;;
59300;SDS011;45073;52.740;6.784;2024-03-02T06:02:57;6.22;;;2.42;;
59300;SDS011;45073;52.740;6.784;2024-03-02T06:05:23;5.35;;;1.75;;
59300;SDS011;45073;52.740;6.784;2024-03-02T06:07:48;5.57;;;2.05;;
59300;SDS011;45073;52.740;6.784;2024-03-02T06:10:14;6.05;;;2.03;;
59300;SDS011;45073;52.740;6.784;2024-03-02T06:12:40;6.15;;;1.92;;
59300;SDS011;45073;52.740;6.784;2024-03-02T06:15:05;5.45;;;1.95;;
59300;SDS011;45073;52.740;6.784;2024-03-02T06:17:31;6.78;;;2.03;;
59300;SDS011;45073;52.740;6.784;2024-03-02T06:19:57;8.48;;;2.10;;
59300;SDS011;45073;52.740;6.784;2024-03-02T06:22:23;3.75;;;1.88;;
59300;SDS011;45073;52.740;6.784;2024-03-02T06:24:50;5.53;;;1.95;;
59300;SDS011;45073;52.740;6.784;2024-03-02T06:27:16;4.53;;;1.67;;
59300;SDS011;45073;52.740;6.784;2024-03-02T06:29:42;4.03;;;1.60;;
59300;SDS011;45073;52.740;6.784;2024-03-02T06:32:07;5.50;;;2.17;;
59300;SDS011;45073;52.740;6.784;2024-03-02T06:34:33;6.00;;;2.28;;
59300;SDS011;45073;52.740;6.784;2024-03-02T06:36:59;5.20;;;2.00;;
59300;SDS011;45073;52.740;6.784;2024-03-02T06:39:24;7.18;;;1.88;;
59300;SDS011;45073;52.740;6.784;2024-03-02T06:41:51;4.50;;;1.60;;
59300;SDS011;45073;52.740;6.784;2024-03-02T06:44:17;5.65;;;2.00;;
59300;SDS011;45073;52.740;6.784;2024-03-02T06:46:42;6.15;;;2.03;;
59300;SDS011;45073;52.740;6.784;2024-03-02T06:49:08;5.63;;;1.98;;
59300;SDS011;45073;52.740;6.784;2024-03-02T06:51:35;5.30;;;1.70;;
59300;SDS011;45073;52.740;6.784;2024-03-02T06:54:01;5.18;;;1.95;;
59300;SDS011;45073;52.740;6.784;2024-03-02T06:56:27;6.53;;;2.05;;
59300;SDS011;45073;52.740;6.784;2024-03-02T06:58:53;6.10;;;2.22;;
59300;SDS011;45073;52.740;6.784;2024-03-02T07:01:18;8.05;;;2.42;;
59300;SDS011;45073;52.740;6.784;2024-03-02T07:03:45;7.22;;;2.63;;
59300;SDS011;45073;52.740;6.784;2024-03-02T07:06:11;5.15;;;1.80;;
59300;SDS011;45073;52.740;6.784;2024-03-02T07:08:36;6.30;;;2.28;;
59300;SDS011;45073;52.740;6.784;2024-03-02T07:11:02;8.52;;;2.33;;
59300;SDS011;45073;52.740;6.784;2024-03-02T07:13:28;5.70;;;2.00;;
59300;SDS011;45073;52.740;6.784;2024-03-02T07:15:55;6.72;;;2.67;;
59300;SDS011;45073;52.740;6.784;2024-03-02T07:18:29;6.15;;;2.20;;
59300;SDS011;45073;52.740;6.784;2024-03-02T07:20:56;7.25;;;2.38;;
59300;SDS011;45073;52.740;6.784;2024-03-02T07:23:24;6.97;;;2.42;;
59300;SDS011;45073;52.740;6.784;2024-03-02T07:25:52;6.57;;;2.15;;
59300;SDS011;45073;52.740;6.784;2024-03-02T07:28:22;6.57;;;2.55;;
59300;SDS011;45073;52.740;6.784;2024-03-02T07:30:57;7.75;;;2.33;;
59300;SDS011;45073;52.740;6.784;2024-03-02T07:33:26;7.70;;;2.63;;
59300;SDS011;45073;52.740;6.784;2024-03-02T07:35:53;6.50;;;2.20;;
59300;SDS011;45073;52.740;6.784;2024-03-02T07:38:20;5.75;;;2.65;;
59300;SDS011;45073;52.740;6.784;2024-03-02T07:40:47;5.40;;;2.42;;
59300;SDS011;45073;52.740;6.784;2024-03-02T07:43:15;6.32;;;2.17;;
59300;SDS011;45073;52.740;6.784;2024-03-02T07:45:42;7.20;;;2.08;;
59300;SDS011;45073;52.740;6.784;2024-03-02T07:48:07;7.22;;;2.50;;
59300;SDS011;45073;52.740;6.784;2024-03-02T07:50:33;6.43;;;2.55;;
59300;SDS011;45073;52.740;6.784;2024-03-02T07:53:03;10.00;;;2.70;;
59300;SDS011;45073;52.740;6.784;2024-03-02T07:55:29;7.85;;;2.83;;
59300;SDS011;45073;52.740;6.784;2024-03-02T07:57:55;7.63;;;2.50;;
59300;SDS011;45073;52.740;6.784;2024-03-02T08:00:21;4.68;;;1.77;;
59300;SDS011;45073;52.740;6.784;2024-03-02T08:02:48;5.78;;;2.17;;
59300;SDS011;45073;52.740;6.784;2024-03-02T08:05:15;6.00;;;2.08;;
59300;SDS011;45073;52.740;6.784;2024-03-02T08:07:43;5.70;;;1.98;;
59300;SDS011;45073;52.740;6.784;2024-03-02T08:10:09;6.90;;;2.25;;
59300;SDS011;45073;52.740;6.784;2024-03-02T08:12:35;7.55;;;2.42;;
59300;SDS011;45073;52.740;6.784;2024-03-02T08:15:00;5.82;;;2.22;;
59300;SDS011;45073;52.740;6.784;2024-03-02T08:17:26;6.85;;;2.17;;
59300;SDS011;45073;52.740;6.784;2024-03-02T08:19:52;7.63;;;2.38;;
59300;SDS011;45073;52.740;6.784;2024-03-02T08:22:18;5.35;;;2.13;;
59300;SDS011;45073;52.740;6.784;2024-03-02T08:24:45;6.80;;;2.35;;
59300;SDS011;45073;52.740;6.784;2024-03-02T08:27:11;7.63;;;2.90;;
59300;SDS011;45073;52.740;6.784;2024-03-02T08:29:37;6.07;;;2.58;;
59300;SDS011;45073;52.740;6.784;2024-03-02T08:32:03;7.28;;;2.20;;
59300;SDS011;45073;52.740;6.784;2024-03-02T08:34:29;5.85;;;2.30;;
59300;SDS011;45073;52.740;6.784;2024-03-02T08:36:55;8.55;;;2.83;;
59300;SDS011;45073;52.740;6.784;2024-03-02T08:39:21;7.63;;;2.55;;
59300;SDS011;45073;52.740;6.784;2024-03-02T08:41:47;11.02;;;2.65;;
59300;SDS011;45073;52.740;6.784;2024-03-02T08:44:13;5.80;;;2.20;;
59300;SDS011;45073;52.740;6.784;2024-03-02T08:46:40;7.93;;;2.13;;
59300;SDS011;45073;52.740;6.784;2024-03-02T08:49:06;4.00;;;1.83;;
59300;SDS011;45073;52.740;6.784;2024-03-02T08:51:32;4.72;;;1.70;;
59300;SDS011;45073;52.740;6.784;2024-03-02T08:53:59;4.57;;;1.70;;
59300;SDS011;45073;52.740;6.784;2024-03-02T08:56:24;6.80;;;1.67;;
59300;SDS011;45073;52.740;6.784;2024-03-02T08:58:51;7.00;;;2.78;;
59300;SDS011;45073;52.740;6.784;2024-03-02T09:01:17;3.42;;;1.30;;
59300;SDS011;45073;52.740;6.784;2024-03-02T09:03:44;6.47;;;1.98;;
59300;SDS011;45073;52.740;6.784;2024-03-02T09:06:11;4.72;;;1.70;;
59300;SDS011;45073;52.740;6.784;2024-03-02T09:08:37;4.78;;;1.60;;
59300;SDS011;45073;52.740;6.784;2024-03-02T09:11:04;5.57;;;1.80;;
59300;SDS011;45073;52.740;6.784;2024-03-02T09:13:31;4.45;;;1.75;;
59300;SDS011;45073;52.740;6.784;2024-03-02T09:15:58;5.85;;;2.00;;
59300;SDS011;45073;52.740;6.784;2024-03-02T09:18:24;5.22;;;1.95;;
59300;SDS011;45073;52.740;6.784;2024-03-02T09:20:49;5.32;;;1.60;;
59300;SDS011;45073;52.740;6.784;2024-03-02T09:23:15;5.43;;;1.70;;
59300;SDS011;45073;52.740;6.784;2024-03-02T09:25:40;5.18;;;1.67;;
59300;SDS011;45073;52.740;6.784;2024-03-02T09:28:06;4.65;;;1.48;;
59300;SDS011;45073;52.740;6.784;2024-03-02T09:30:32;5.43;;;1.70;;
59300;SDS011;45073;52.740;6.784;2024-03-02T09:32:58;5.10;;;1.92;;
59300;SDS011;45073;52.740;6.784;2024-03-02T09:35:24;4.07;;;1.65;;
59300;SDS011;45073;52.740;6.784;2024-03-02T09:37:49;5.13;;;1.55;;
59300;SDS011;45073;52.740;6.784;2024-03-02T09:40:15;7.25;;;1.92;;
59300;SDS011;45073;52.740;6.784;2024-03-02T09:42:41;4.18;;;1.30;;
59300;SDS011;45073;52.740;6.784;2024-03-02T09:45:08;4.50;;;1.10;;
59300;SDS011;45073;52.740;6.784;2024-03-02T09:47:34;3.45;;;1.25;;
59300;SDS011;45073;52.740;6.784;2024-03-02T09:50:00;3.65;;;1.13;;
59300;SDS011;45073;52.740;6.784;2024-03-02T09:52:26;6.72;;;1.75;;
59300;SDS011;45073;52.740;6.784;2024-03-02T09:54:52;5.32;;;1.58;;
59300;SDS011;45073;52.740;6.784;2024-03-02T09:57:18;6.38;;;2.20;;
59300;SDS011;45073;52.740;6.784;2024-03-02T09:59:44;6.07;;;2.00;;
59300;SDS011;45073;52.740;6.784;2024-03-02T10:02:10;6.82;;;2.13;;
59300;SDS011;45073;52.740;6.784;2024-03-02T10:04:36;8.15;;;2.03;;
59300;SDS011;45073;52.740;6.784;2024-03-02T10:07:15;5.18;;;2.05;;
59300;SDS011;45073;52.740;6.784;2024-03-02T10:09:42;2.42;;;1.10;;
59300;SDS011;45073;52.740;6.784;2024-03-02T10:12:08;5.78;;;2.05;;
59300;SDS011;45073;52.740;6.784;2024-03-02T10:14:36;6.07;;;1.85;;
59300;SDS011;45073;52.740;6.784;2024-03-02T10:17:03;6.30;;;2.10;;
59300;SDS011;45073;52.740;6.784;2024-03-02T10:19:32;5.72;;;1.52;;
59300;SDS011;45073;52.740;6.784;2024-03-02T10:22:00;4.53;;;1.92;;
59300;SDS011;45073;52.740;6.784;2024-03-02T10:24:27;6.45;;;1.70;;
59300;SDS011;45073;52.740;6.784;2024-03-02T10:27:00;5.65;;;1.80;;
59300;SDS011;45073;52.740;6.784;2024-03-02T10:29:27;6.05;;;1.77;;
59300;SDS011;45073;52.740;6.784;2024-03-02T10:31:54;7.45;;;1.80;;
59300;SDS011;45073;52.740;6.784;2024-03-02T10:34:21;4.90;;;1.63;;
59300;SDS011;45073;52.740;6.784;2024-03-02T10:36:47;3.28;;;1.55;;
59300;SDS011;45073;52.740;6.784;2024-03-02T10:39:13;7.88;;;1.60;;
59300;SDS011;45073;52.740;6.784;2024-03-02T10:41:39;5.28;;;1.98;;
59300;SDS011;45073;52.740;6.784;2024-03-02T10:44:06;5.25;;;1.60;;
59300;SDS011;45073;52.740;6.784;2024-03-02T10:46:35;6.00;;;1.92;;
59300;SDS011;45073;52.740;6.784;2024-03-02T10:49:03;4.68;;;1.58;;
59300;SDS011;45073;52.740;6.784;2024-03-02T10:51:31;3.10;;;1.23;;
59300;SDS011;45073;52.740;6.784;2024-03-02T10:53:58;4.63;;;1.20;;
59300;SDS011;45073;52.740;6.784;2024-03-02T10:56:36;7.97;;;1.95;;
59300;SDS011;45073;52.740;6.784;2024-03-02T11:01:36;4.15;;;1.30;;
59300;SDS011;45073;52.740;6.784;2024-03-02T11:04:04;3.40;;;1.25;;
59300;SDS011;45073;52.740;6.784;2024-03-02T11:06:33;5.32;;;1.40;;
59300;SDS011;45073;52.740;6.784;2024-03-02T11:09:04;4.00;;;1.40;;
59300;SDS011;45073;52.740;6.784;2024-03-02T11:11:35;4.45;;;1.30;;
59300;SDS011;45073;52.740;6.784;2024-03-02T11:14:04;3.85;;;1.40;;
59300;SDS011;45073;52.740;6.784;2024-03-02T11:16:34;3.85;;;1.30;;
59300;SDS011;45073;52.740;6.784;2024-03-02T11:19:01;3.85;;;1.40;;
59300;SDS011;45073;52.740;6.784;2024-03-02T11:21:32;3.60;;;1.58;;
59300;SDS011;45073;52.740;6.784;2024-03-02T11:27:00;4.70;;;1.30;;
59300;SDS011;45073;52.740;6.784;2024-03-02T11:32:04;7.00;;;2.00;;
59300;SDS011;45073;52.740;6.784;2024-03-02T11:34:46;6.20;;;1.50;;
59300;SDS011;45073;52.740;6.784;2024-03-02T11:37:14;5.30;;;1.67;;
59300;SDS011;45073;52.740;6.784;2024-03-02T11:39:42;5.22;;;2.03;;
59300;SDS011;45073;52.740;6.784;2024-03-02T11:42:09;4.97;;;1.90;;
59300;SDS011;45073;52.740;6.784;2024-03-02T11:44:39;7.70;;;2.28;;
59300;SDS011;45073;52.740;6.784;2024-03-02T11:47:06;4.88;;;1.77;;
59300;SDS011;45073;52.740;6.784;2024-03-02T11:49:49;6.32;;;2.38;;
59300;SDS011;45073;52.740;6.784;2024-03-02T11:52:16;5.65;;;2.35;;
59300;SDS011;45073;52.740;6.784;2024-03-02T11:54:46;4.70;;;2.00;;
59300;SDS011;45073;52.740;6.784;2024-03-02T11:57:16;5.95;;;1.90;;
59300;SDS011;45073;52.740;6.784;2024-03-02T11:59:48;5.85;;;2.33;;
59300;SDS011;45073;52.740;6.784;2024-03-02T12:02:17;4.82;;;2.05;;
59300;SDS011;45073;52.740;6.784;2024-03-02T12:04:44;4.70;;;2.40;;
59300;SDS011;45073;52.740;6.784;2024-03-02T12:07:13;7.03;;;2.60;;
59300;SDS011;45073;52.740;6.784;2024-03-02T12:09:44;8.35;;;2.55;;
59300;SDS011;45073;52.740;6.784;2024-03-02T12:12:10;6.35;;;2.40;;
59300;SDS011;45073;52.740;6.784;2024-03-02T12:14:37;6.05;;;2.20;;
59300;SDS011;45073;52.740;6.784;2024-03-02T12:17:04;7.53;;;2.60;;
59300;SDS011;45073;52.740;6.784;2024-03-02T12:19:31;6.25;;;2.50;;
59300;SDS011;45073;52.740;6.784;2024-03-02T12:21:58;5.32;;;2.10;;
59300;SDS011;45073;52.740;6.784;2024-03-02T12:24:26;6.80;;;2.60;;
59300;SDS011;45073;52.740;6.784;2024-03-02T12:26:53;6.47;;;2.30;;
59300;SDS011;45073;52.740;6.784;2024-03-02T12:29:20;8.55;;;3.10;;
59300;SDS011;45073;52.740;6.784;2024-03-02T12:31:49;6.72;;;2.90;;
59300;SDS011;45073;52.740;6.784;2024-03-02T12:34:17;6.78;;;2.45;;
59300;SDS011;45073;52.740;6.784;2024-03-02T12:36:43;5.85;;;2.58;;
59300;SDS011;45073;52.740;6.784;2024-03-02T12:39:12;6.60;;;2.60;;
59300;SDS011;45073;52.740;6.784;2024-03-02T12:41:39;6.35;;;2.53;;
59300;SDS011;45073;52.740;6.784;2024-03-02T12:44:05;5.20;;;2.03;;
59300;SDS011;45073;52.740;6.784;2024-03-02T12:46:31;4.80;;;1.95;;
59300;SDS011;45073;52.740;6.784;2024-03-02T12:48:58;5.80;;;2.28;;
59300;SDS011;45073;52.740;6.784;2024-03-02T12:51:29;6.82;;;2.20;;
59300;SDS011;45073;52.740;6.784;2024-03-02T12:53:56;4.70;;;2.30;;
59300;SDS011;45073;52.740;6.784;2024-03-02T12:56:23;8.05;;;2.80;;
59300;SDS011;45073;52.740;6.784;2024-03-02T12:58:56;8.82;;;3.03;;
59300;SDS011;45073;52.740;6.784;2024-03-02T13:01:22;6.60;;;2.60;;
59300;SDS011;45073;52.740;6.784;2024-03-02T13:03:52;6.80;;;2.60;;
59300;SDS011;45073;52.740;6.784;2024-03-02T13:06:20;5.90;;;2.28;;
59300;SDS011;45073;52.740;6.784;2024-03-02T13:08:46;6.38;;;2.10;;
59300;SDS011;45073;52.740;6.784;2024-03-02T13:11:12;6.72;;;2.30;;
59300;SDS011;45073;52.740;6.784;2024-03-02T13:13:41;7.50;;;2.20;;
59300;SDS011;45073;52.740;6.784;2024-03-02T13:16:08;5.00;;;1.83;;
59300;SDS011;45073;52.740;6.784;2024-03-02T13:18:35;5.65;;;1.80;;
59300;SDS011;45073;52.740;6.784;2024-03-02T13:21:01;5.15;;;1.70;;
59300;SDS011;45073;52.740;6.784;2024-03-02T13:23:27;6.32;;;1.70;;
59300;SDS011;45073;52.740;6.784;2024-03-02T13:25:55;5.75;;;1.63;;
59300;SDS011;45073;52.740;6.784;2024-03-02T13:28:23;3.45;;;1.50;;
59300;SDS011;45073;52.740;6.784;2024-03-02T13:30:49;5.13;;;1.60;;
59300;SDS011;45073;52.740;6.784;2024-03-02T13:33:14;4.32;;;1.60;;
59300;SDS011;45073;52.740;6.784;2024-03-02T13:35:40;4.90;;;1.25;;
59300;SDS011;45073;52.740;6.784;2024-03-02T13:38:06;5.05;;;1.60;;
59300;SDS011;45073;52.740;6.784;2024-03-02T13:40:31;3.97;;;1.40;;
59300;SDS011;45073;52.740;6.784;2024-03-02T13:43:00;4.18;;;1.48;;
59300;SDS011;45073;52.740;6.784;2024-03-02T13:45:27;4.45;;;1.30;;
59300;SDS011;45073;52.740;6.784;2024-03-02T13:47:53;3.92;;;1.40;;
59300;SDS011;45073;52.740;6.784;2024-03-02T13:50:18;5.72;;;1.30;;
59300;SDS011;45073;52.740;6.784;2024-03-02T13:52:45;5.15;;;1.58;;
59300;SDS011;45073;52.740;6.784;2024-03-02T13:55:10;3.50;;;1.30;;
59300;SDS011;45073;52.740;6.784;2024-03-02T13:57:36;3.90;;;1.40;;
59300;SDS011;45073;52.740;6.784;2024-03-02T14:00:03;5.47;;;1.50;;
59300;SDS011;45073;52.740;6.784;2024-03-02T14:02:35;5.22;;;1.50;;
59300;SDS011;45073;52.740;6.784;2024-03-02T14:05:01;5.93;;;1.92;;
59300;SDS011;45073;52.740;6.784;2024-03-02T14:07:27;6.47;;;1.92;;
59300;SDS011;45073;52.740;6.784;2024-03-02T14:09:52;5.40;;;1.60;;
59300;SDS011;45073;52.740;6.784;2024-03-02T14:12:18;4.88;;;1.77;;
59300;SDS011;45073;52.740;6.784;2024-03-02T14:14:44;5.75;;;1.90;;
59300;SDS011;45073;52.740;6.784;2024-03-02T14:17:09;5.68;;;1.70;;
59300;SDS011;45073;52.740;6.784;2024-03-02T14:19:40;4.03;;;1.58;;
59300;SDS011;45073;52.740;6.784;2024-03-02T14:22:06;3.90;;;1.50;;
59300;SDS011;45073;52.740;6.784;2024-03-02T14:24:31;4.80;;;1.75;;
59300;SDS011;45073;52.740;6.784;2024-03-02T14:26:57;5.85;;;1.70;;
59300;SDS011;45073;52.740;6.784;2024-03-02T14:29:26;4.75;;;1.80;;
59300;SDS011;45073;52.740;6.784;2024-03-02T14:31:52;4.88;;;1.52;;
59300;SDS011;45073;52.740;6.784;2024-03-02T14:34:17;4.97;;;1.60;;
59300;SDS011;45073;52.740;6.784;2024-03-02T14:36:43;4.25;;;1.42;;
59300;SDS011;45073;52.740;6.784;2024-03-02T14:39:09;5.15;;;1.70;;
59300;SDS011;45073;52.740;6.784;2024-03-02T14:41:36;5.40;;;1.50;;
59300;SDS011;45073;52.740;6.784;2024-03-02T14:44:02;4.65;;;1.70;;
59300;SDS011;45073;52.740;6.784;2024-03-02T14:46:27;4.60;;;1.60;;
59300;SDS011;45073;52.740;6.784;2024-03-02T14:48:53;4.75;;;1.70;;
59300;SDS011;45073;52.740;6.784;2024-03-02T14:51:19;5.63;;;1.80;;
59300;SDS011;45073;52.740;6.784;2024-03-02T14:53:45;4.93;;;1.80;;
59300;SDS011;45073;52.740;6.784;2024-03-02T14:56:10;5.28;;;1.70;;
59300;SDS011;45073;52.740;6.784;2024-03-02T14:58:38;4.32;;;1.73;;
59300;SDS011;45073;52.740;6.784;2024-03-02T15:01:04;4.82;;;1.67;;
59300;SDS011;45073;52.740;6.784;2024-03-02T15:03:30;5.18;;;1.70;;